Search for airport 
image banner adimage banner adimage banner ad
image banner ad

I27 - Elkader

Located in Elkader, United States

ICAO - I27, IATA -

Data provided by Airmate  

General information

Coordinates: N42°50'50" W91°22'56"
Elevation is 932 feet MSL.
Magnetic variation is 02° East
View others Airports in Iowa

Operational data

Special qualification required
Current time UTC:
Current local time:
Weather at : KPDC - Prairie Du Chien Muni ( 28 km )
METAR: KPDC 181815Z AUTO 20003KT 10SM CLR 29/14 A2981 RMK AO2 T02940137
View NOTAMs / SUP AIP / TFR affecting this airport [VIEW]
Communications frequencies: [VIEW]

Runways:

RWY identifierQFULength (ft)Width (ft)SurfaceLDA (ft)
17170575GRASS
35170575GRASS

Airport contact information

Address: Elkader United States

Satellite view of I27